Time;durP1;ratioP1;P1;durP2;ratioP2;P2;SDS_P1;SDS_P2;PMS_P1;PMS_P2;Temp;Humidity;BMP_temperature;BMP_pressure;BME280_temperature;BME280_humidity;BME280_pressure;Samples;Min_cycle;Max_cycle;Signal;HPM_P1;HPM_P2
2022/10/24 00:00:32;;;;;;;6.35;1.42;;;;;;;10.00;100.00;98379.41;4978479;28;20501;-93
2022/10/24 00:03:02;;;;;;;41.58;2.53;;;;;;;10.03;100.00;98379.03;4969052;28;20042;-93
2022/10/24 00:05:31;;;;;;;15.90;1.90;;;;;;;10.07;100.00;98389.19;5018090;28;20486;-93
2022/10/24 00:07:59;;;;;;;25.63;1.77;;;;;;;10.05;100.00;98390.22;4996079;28;20045;-93
2022/10/24 00:10:28;;;;;;;7.57;1.40;;;;;;;10.03;100.00;98392.22;4984025;28;20034;-93
2022/10/24 00:12:56;;;;;;;57.67;2.58;;;;;;;9.99;100.00;98390.97;4978245;28;20034;-93
2022/10/24 00:15:27;;;;;;;28.30;2.10;;;;;;;10.05;100.00;98390.22;4947808;28;20667;-93
2022/10/24 00:17:55;;;;;;;78.07;2.85;;;;;;;10.11;100.00;98399.22;4975464;28;20053;-93
2022/10/24 00:20:24;;;;;;;41.35;2.42;;;;;;;10.07;100.00;98394.47;4983644;28;20122;-88
2022/10/24 00:22:51;;;;;;;28.08;2.15;;;;;;;10.09;100.00;98388.00;4978430;28;20026;-88
2022/10/24 00:25:20;;;;;;;50.47;2.10;;;;;;;10.11;100.00;98390.47;4989436;28;20046;-93
2022/10/24 00:27:48;;;;;;;50.88;2.67;;;;;;;10.14;100.00;98404.09;4999333;28;20041;-93
2022/10/24 00:30:17;;;;;;;19.80;2.00;;;;;;;10.14;100.00;98393.53;4970758;28;20042;-93
2022/10/24 00:32:44;;;;;;;53.70;2.50;;;;;;;10.22;100.00;98400.50;4976937;28;20047;-92
2022/10/24 00:35:13;;;;;;;90.93;2.67;;;;;;;10.22;100.00;98400.50;4972374;28;20065;-88
2022/10/24 00:37:39;;;;;;;42.42;2.25;;;;;;;10.22;100.00;98392.59;4993323;28;20042;-88
2022/10/24 00:40:09;;;;;;;17.85;2.10;;;;;;;10.24;100.00;98392.38;4964020;28;20582;-93
2022/10/24 00:42:37;;;;;;;77.32;3.25;;;;;;;10.29;100.00;98395.25;4985169;28;20042;-92
2022/10/24 00:45:37;;;;;;;77.88;3.95;;;;;;;10.26;100.00;98395.63;4978907;28;20034;-93
2022/10/24 00:48:20;;;;;;;12.23;2.33;;;;;;;10.25;100.00;98391.38;4977648;28;20039;-92
2022/10/24 00:50:53;;;;;;;10.30;2.30;;;;;;;10.23;100.00;98394.19;4977650;28;20431;-93
2022/10/24 00:53:24;;;;;;;41.35;2.50;;;;;;;10.24;100.00;98392.38;4957927;28;20069;-93
2022/10/24 00:55:56;;;;;;;61.55;2.55;;;;;;;10.22;100.00;98392.59;4993585;28;20034;-93
2022/10/24 00:58:27;;;;;;;58.60;2.72;;;;;;;10.20;100.00;98393.75;4978288;28;20038;-93
2022/10/24 01:00:57;;;;;;;78.38;2.70;;;;;;;10.19;100.00;98398.25;4977343;28;20030;-93
2022/10/24 01:03:24;;;;;;;61.05;2.53;;;;;;;10.16;100.00;98391.50;4981303;28;20046;-93
2022/10/24 01:06:17;;;;;;;12.85;1.77;;;;;;;10.18;100.00;98400.06;4975961;28;20030;-94
2022/10/24 01:08:48;;;;;;;18.33;1.40;;;;;;;10.19;100.00;98406.16;4964543;28;20057;-93
2022/10/24 01:11:44;;;;;;;12.57;1.98;;;;;;;10.18;100.00;98405.34;4989050;28;20038;-93
2022/10/24 01:14:25;;;;;;;58.35;2.15;;;;;;;10.14;100.00;98408.56;4977365;28;20085;-93
2022/10/24 01:17:16;;;;;;;5.35;1.50;;;;;;;10.15;100.00;98412.81;5006234;28;20042;-93
2022/10/24 01:20:02;;;;;;;7.97;1.13;;;;;;;10.13;100.00;98402.44;4977828;28;20061;-93
2022/10/24 01:23:13;;;;;;;7.75;1.25;;;;;;;10.10;100.00;98408.13;4994195;28;20146;-93
2022/10/24 01:26:18;;;;;;;16.90;1.58;;;;;;;9.96;100.00;98407.19;4946563;28;20135;-93
2022/10/24 01:29:05;;;;;;;8.63;1.58;;;;;;;9.91;100.00;98401.66;4962010;28;20125;-93
2022/10/24 01:31:44;;;;;;;8.05;1.20;;;;;;;9.84;100.00;98387.63;4991569;28;20038;-93
2022/10/24 01:34:31;;;;;;;6.35;2.05;;;;;;;9.89;100.00;98401.88;4977417;28;20112;-94
2022/10/24 01:37:10;;;;;;;40.17;2.67;;;;;;;9.87;100.00;98403.06;4996342;28;20025;-93
2022/10/24 01:39:44;;;;;;;23.08;2.13;;;;;;;9.86;100.00;98396.16;4993139;28;20446;-94
2022/10/24 01:42:20;;;;;;;48.47;2.72;;;;;;;9.85;100.00;98395.34;4996427;28;20049;-93
2022/10/24 01:44:53;;;;;;;56.55;2.97;;;;;;;9.85;100.00;98394.53;5012694;28;20033;-92
2022/10/24 01:47:42;;;;;;;15.25;2.25;;;;;;;9.89;100.00;98399.22;5012222;28;20069;-93
2022/10/24 01:50:15;;;;;;;129.93;3.47;;;;;;;9.94;100.00;98403.94;4988106;28;20042;-94
2022/10/24 01:52:46;;;;;;;61.63;3.20;;;;;;;9.93;100.00;98395.22;5003125;28;20393;-94
2022/10/24 01:55:17;;;;;;;91.28;3.55;;;;;;;9.95;100.00;98395.03;5011712;28;20042;-93
2022/10/24 01:57:47;;;;;;;37.28;1.88;;;;;;;9.91;100.00;98393.75;4978170;28;20067;-93
2022/10/24 02:00:23;;;;;;;88.43;3.47;;;;;;;9.91;100.00;98393.75;5023222;28;20764;-88
2022/10/24 02:03:00;;;;;;;49.25;2.50;;;;;;;9.89;100.00;98396.59;4992748;28;20034;-88
2022/10/24 02:05:39;;;;;;;48.97;2.45;;;;;;;9.85;100.00;98402.44;4996931;28;20136;-92
2022/10/24 02:08:14;;;;;;;30.50;2.30;;;;;;;9.87;100.00;98406.53;5012429;28;20044;-93
2022/10/24 02:10:55;;;;;;;29.77;2.00;;;;;;;9.89;100.00;98401.88;4996820;28;20061;-93
2022/10/24 02:13:38;;;;;;;24.17;1.85;;;;;;;9.91;100.00;98399.03;4994431;28;20040;-93
2022/10/24 02:16:06;;;;;;;82.63;2.53;;;;;;;9.88;100.00;98389.69;4984889;28;20037;-92
2022/10/24 02:18:34;;;;;;;78.72;2.72;;;;;;;9.91;100.00;98389.31;5002698;28;20030;-93
2022/10/24 02:21:25;;;;;;;34.75;1.77;;;;;;;9.87;100.00;98390.72;4982003;28;20033;-92
2022/10/24 02:23:58;;;;;;;84.90;2.67;;;;;;;9.86;100.00;98396.16;4995202;28;20405;-92
2022/10/24 02:26:39;;;;;;;43.53;1.65;;;;;;;9.76;100.00;98388.56;4995537;28;20044;-92
2022/10/24 02:29:18;;;;;;;34.63;1.63;;;;;;;9.67;100.00;98388.69;5012739;28;20081;-92
2022/10/24 02:31:51;;;;;;;4.70;1.05;;;;;;;9.63;100.00;98384.00;5011429;28;20042;-93
2022/10/24 02:34:22;;;;;;;29.05;2.08;;;;;;;9.60;100.00;98385.19;5025973;28;20805;-92
2022/10/24 02:36:53;;;;;;;32.35;1.50;;;;;;;9.64;100.00;98385.63;5009295;28;20271;-93
2022/10/24 02:39:23;;;;;;;36.78;1.70;;;;;;;9.62;100.00;98382.38;4964206;28;20037;-93
2022/10/24 02:41:54;;;;;;;44.28;1.65;;;;;;;9.52;100.00;98375.56;4996333;28;20037;-92
2022/10/24 02:44:23;;;;;;;21.70;1.30;;;;;;;9.50;100.00;98374.97;4991841;28;20076;-92
2022/10/24 02:46:56;;;;;;;13.75;1.13;;;;;;;9.44;100.00;98375.72;5008638;28;20085;-92
2022/10/24 02:49:25;;;;;;;7.20;1.15;;;;;;;9.45;100.00;98379.97;4973601;28;20068;-92
2022/10/24 02:51:54;;;;;;;6.95;1.13;;;;;;;9.40;100.00;98371.81;5023170;28;20417;-92
2022/10/24 02:54:22;;;;;;;44.85;1.92;;;;;;;9.38;100.00;98373.84;4982563;28;20133;-93
2022/10/24 02:56:57;;;;;;;7.28;1.00;;;;;;;9.32;100.00;98379.84;4987453;28;20033;-93
2022/10/24 02:59:26;;;;;;;24.38;1.67;;;;;;;9.30;100.00;98394.03;4968334;28;20046;-93
2022/10/24 03:01:54;;;;;;;5.65;1.13;;;;;;;9.27;100.00;98373.31;5006372;28;20048;-93
2022/10/24 03:04:22;;;;;;;3.08;1.25;;;;;;;9.29;100.00;98375.75;5015556;28;20046;-92
2022/10/24 03:06:49;;;;;;;8.65;1.10;;;;;;;9.29;100.00;98375.75;5027260;28;20041;-93
2022/10/24 03:09:18;;;;;;;116.50;3.70;;;;;;;9.26;100.00;98376.13;5012664;28;20034;-93
2022/10/24 03:11:46;;;;;;;18.73;1.85;;;;;;;9.18;100.00;98375.25;5013263;28;20052;-93
2022/10/24 03:14:14;;;;;;;2.03;1.00;;;;;;;9.26;100.00;98381.41;4968157;28;20490;-93
2022/10/24 03:16:42;;;;;;;5.85;1.65;;;;;;;9.24;100.00;98376.31;4969178;28;20042;-93
2022/10/24 03:19:12;;;;;;;11.80;1.80;;;;;;;9.24;100.00;98373.69;4990202;28;20044;-92
2022/10/24 03:21:42;;;;;;;20.63;1.10;;;;;;;9.25;100.00;98370.03;4990861;28;20124;-92
2022/10/24 03:24:12;;;;;;;10.18;1.30;;;;;;;9.27;100.00;98378.59;5028962;28;20030;-92
2022/10/24 03:26:43;;;;;;;13.13;0.98;;;;;;;9.28;100.00;98382.88;4994689;28;20042;-92
2022/10/24 03:29:13;;;;;;;12.52;1.50;;;;;;;9.28;100.00;98385.50;5028722;28;20037;-93
2022/10/24 03:31:41;;;;;;;20.75;1.10;;;;;;;9.24;100.00;98378.97;4976863;28;20486;-93
2022/10/24 03:34:11;;;;;;;4.28;0.98;;;;;;;9.26;100.00;98376.97;5029225;28;20065;-92
2022/10/24 03:36:40;;;;;;;8.23;0.77;;;;;;;9.27;100.00;98381.22;5027284;28;20442;-92
2022/10/24 03:39:10;;;;;;;15.45;1.90;;;;;;;9.26;100.00;98376.97;4997392;28;20036;-93
2022/10/24 03:41:39;;;;;;;9.43;1.60;;;;;;;9.31;100.00;98386.94;5023610;28;20061;-93
2022/10/24 03:44:07;;;;;;;7.90;1.58;;;;;;;9.34;100.00;98386.56;4999304;28;20041;-93
2022/10/24 03:46:36;;;;;;;67.03;2.33;;;;;;;9.35;100.00;98382.13;5047515;28;20037;-92
2022/10/24 03:49:04;;;;;;;8.55;1.58;;;;;;;9.38;100.00;98389.66;5031740;28;20096;-92
2022/10/24 03:51:33;;;;;;;20.33;1.83;;;;;;;9.38;100.00;98385.19;4998690;28;20354;-93
2022/10/24 03:54:00;;;;;;;67.20;3.30;;;;;;;9.35;100.00;98390.81;4981384;28;20121;-93
2022/10/24 03:56:28;;;;;;;30.05;1.60;;;;;;;9.34;100.00;98386.56;4991929;28;20041;-94
2022/10/24 03:58:56;;;;;;;17.40;1.40;;;;;;;9.33;100.00;98386.75;4971912;28;20065;-94
2022/10/24 04:01:27;;;;;;;19.10;1.50;;;;;;;9.30;100.00;98380.03;4981369;28;20120;-93
2022/10/24 04:03:57;;;;;;;7.47;1.33;;;;;;;9.35;100.00;98395.31;5014247;28;20060;-93
2022/10/24 04:06:26;;;;;;;3.38;1.38;;;;;;;9.34;100.00;98388.38;5028026;28;20066;-94
2022/10/24 04:08:54;;;;;;;15.32;1.25;;;;;;;9.35;100.00;98395.31;5015147;28;20072;-94
2022/10/24 04:11:24;;;;;;;20.42;1.60;;;;;;;9.37;100.00;98403.81;5035239;28;20511;-94
2022/10/24 04:13:52;;;;;;;7.63;1.55;;;;;;;9.38;100.00;98405.47;4982549;28;20040;-93
2022/10/24 04:16:23;;;;;;;10.20;2.30;;;;;;;9.43;100.00;98410.97;5028825;28;20156;-93
2022/10/24 04:18:53;;;;;;;10.27;1.70;;;;;;;9.42;100.00;98401.44;5015033;28;20128;-94
2022/10/24 04:21:23;;;;;;;13.10;1.52;;;;;;;9.42;100.00;98406.72;5024003;28;20041;-94
2022/10/24 04:23:53;;;;;;;28.52;1.77;;;;;;;9.40;100.00;98420.09;5002809;28;20038;-93
2022/10/24 04:26:23;;;;;;;15.18;1.85;;;;;;;9.36;100.00;98410.94;5012800;28;20046;-93
2022/10/24 04:28:53;;;;;;;31.92;2.05;;;;;;;9.34;100.00;98401.56;5006153;28;20043;-93
2022/10/24 04:31:22;;;;;;;35.15;2.03;;;;;;;9.38;100.00;98408.09;4979927;28;20475;-93
2022/10/24 04:33:50;;;;;;;8.48;1.92;;;;;;;9.39;100.00;98410.56;4981193;28;20096;-93
2022/10/24 04:36:19;;;;;;;5.60;1.25;;;;;;;9.42;100.00;98407.53;5029956;28;20033;-93
2022/10/24 04:38:47;;;;;;;13.52;2.00;;;;;;;9.47;100.00;98416.72;4999185;28;20042;-92
2022/10/24 04:41:16;;;;;;;52.55;2.58;;;;;;;9.48;100.00;98419.16;5014223;28;20048;-92
2022/10/24 04:43:44;;;;;;;19.10;2.03;;;;;;;9.41;100.00;98411.16;4956191;28;20505;-93
2022/10/24 04:46:13;;;;;;;8.13;1.65;;;;;;;9.42;100.00;98412.00;4968850;28;20033;-92
2022/10/24 04:48:40;;;;;;;9.07;1.55;;;;;;;9.41;100.00;98418.28;5030910;28;20053;-92
2022/10/24 04:51:09;;;;;;;12.20;1.48;;;;;;;9.43;100.00;98427.63;5001563;28;20034;-92
2022/10/24 04:53:37;;;;;;;10.18;1.60;;;;;;;9.35;100.00;98419.03;4999453;28;20096;-92
2022/10/24 04:56:06;;;;;;;68.25;2.63;;;;;;;9.39;100.00;98426.38;5025825;28;20545;-93
2022/10/24 04:58:33;;;;;;;10.98;1.60;;;;;;;9.34;100.00;98423.47;4996486;28;20065;-92
2022/10/24 05:01:01;;;;;;;12.13;1.75;;;;;;;9.40;100.00;98429.81;5013801;28;20038;-93
2022/10/24 05:03:29;;;;;;;22.92;1.05;;;;;;;9.39;100.00;98436.09;5031121;28;20049;-93
2022/10/24 05:05:58;;;;;;;6.35;1.30;;;;;;;9.36;100.00;98425.94;5016644;28;20038;-94
2022/10/24 05:08:27;;;;;;;16.05;1.40;;;;;;;9.42;100.00;98441.00;4994179;28;20105;-94
2022/10/24 05:10:55;;;;;;;8.30;1.10;;;;;;;9.43;100.00;98442.63;5030432;28;20041;-93
2022/10/24 05:13:23;;;;;;;7.20;1.30;;;;;;;9.44;100.00;98449.56;4987588;28;20041;-93
2022/10/24 05:15:52;;;;;;;5.32;1.00;;;;;;;9.53;100.00;98461.63;5012850;28;20030;-92
2022/10/24 05:18:20;;;;;;;4.10;1.25;;;;;;;9.51;100.00;98468.06;4999954;28;20042;-92
2022/10/24 05:20:48;;;;;;;3.10;1.40;;;;;;;9.49;100.00;98451.63;5013911;28;20528;-93
2022/10/24 05:23:16;;;;;;;3.10;1.00;;;;;;;9.46;100.00;98452.00;5029244;28;20038;-93
2022/10/24 05:25:45;;;;;;;5.72;1.20;;;;;;;9.51;100.00;98466.25;5027528;28;20037;-92
2022/10/24 05:28:12;;;;;;;3.88;1.58;;;;;;;9.49;100.00;98446.34;5007286;28;20125;-92
2022/10/24 05:30:43;;;;;;;7.05;1.40;;;;;;;9.53;100.00;98447.59;5027859;28;20084;-92
2022/10/24 05:33:14;;;;;;;18.52;1.77;;;;;;;9.56;100.00;98449.88;4973473;28;20129;-92
2022/10/24 05:35:42;;;;;;;28.70;2.00;;;;;;;9.60;100.00;98460.88;5025844;28;20038;-93
2022/10/24 05:38:10;;;;;;;15.95;2.25;;;;;;;9.58;100.00;98462.88;4991823;28;20110;-93
2022/10/24 05:40:38;;;;;;;11.73;2.10;;;;;;;9.59;100.00;98470.59;4989985;28;20034;-93
2022/10/24 05:43:06;;;;;;;5.45;2.30;;;;;;;9.61;100.00;98465.94;4998190;28;20134;-92
2022/10/24 05:45:35;;;;;;;10.75;1.80;;;;;;;9.65;100.00;98461.13;5000568;28;20030;-92
2022/10/24 05:48:03;;;;;;;8.98;3.25;;;;;;;9.68;100.00;98476.56;5018405;28;20063;-92
2022/10/24 05:50:33;;;;;;;7.30;2.67;;;;;;;9.68;100.00;98471.31;5009803;28;20463;-92
2022/10/24 05:53:03;;;;;;;6.20;2.28;;;;;;;9.73;100.00;98465.47;5013543;28;20058;-92
2022/10/24 05:55:34;;;;;;;8.40;2.17;;;;;;;9.78;100.00;98478.88;4997799;28;20033;-93
2022/10/24 05:58:04;;;;;;;6.88;1.55;;;;;;;9.79;100.00;98469.97;5003675;28;20117;-93
2022/10/24 06:00:34;;;;;;;6.50;1.95;;;;;;;9.79;100.00;98477.91;4983710;28;20486;-94
2022/10/24 06:03:04;;;;;;;11.25;2.67;;;;;;;9.75;100.00;98480.09;5027617;28;20127;-94
2022/10/24 06:05:33;;;;;;;10.77;3.15;;;;;;;9.75;100.00;98482.72;5015711;28;20128;-94
2022/10/24 06:08:01;;;;;;;11.32;2.70;;;;;;;9.71;100.00;98473.56;5006155;28;20068;-94
2022/10/24 06:10:31;;;;;;;9.38;2.20;;;;;;;9.78;100.00;98485.00;5000652;28;20046;-93
2022/10/24 06:12:59;;;;;;;10.13;1.85;;;;;;;9.81;100.00;98475.88;5014398;28;20038;-94
2022/10/24 06:15:27;;;;;;;6.97;1.45;;;;;;;9.89;100.00;98477.59;4966938;28;20113;-93
2022/10/24 06:17:55;;;;;;;9.07;2.47;;;;;;;9.94;100.00;98475.19;5020294;28;20117;-94
2022/10/24 06:20:24;;;;;;;13.50;2.53;;;;;;;9.97;100.00;98468.72;5001682;28;20030;-93
2022/10/24 06:22:51;;;;;;;10.15;2.05;;;;;;;10.00;100.00;98481.53;5013471;28;20069;-93
2022/10/24 06:25:19;;;;;;;11.02;1.95;;;;;;;10.03;100.00;98487.25;4992162;28;20909;-94
2022/10/24 06:27:47;;;;;;;14.10;2.30;;;;;;;10.05;100.00;98489.69;4984713;28;20034;-92
2022/10/24 06:30:16;;;;;;;13.60;2.33;;;;;;;10.07;100.00;98485.06;5018897;28;20084;-94
2022/10/24 06:32:45;;;;;;;6.72;1.55;;;;;;;10.09;100.00;98485.69;4997945;28;20029;-94
2022/10/24 06:35:14;;;;;;;11.48;2.05;;;;;;;10.11;100.00;98498.69;5045370;28;20038;-94
2022/10/24 06:37:42;;;;;;;9.80;2.00;;;;;;;10.11;100.00;98496.88;4990192;28;20111;-93
2022/10/24 06:40:12;;;;;;;6.53;1.48;;;;;;;10.16;100.00;98499.75;4992319;28;20034;-94
2022/10/24 06:42:39;;;;;;;5.65;1.38;;;;;;;10.16;100.00;98498.94;4979711;28;20041;-94
2022/10/24 06:45:12;;;;;;;10.05;1.67;;;;;;;10.22;100.00;98500.00;4991181;28;20617;-94
2022/10/24 06:47:40;;;;;;;6.55;1.75;;;;;;;10.23;100.00;98499.81;4990906;28;20038;-93
2022/10/24 06:50:22;;;;;;;6.72;1.60;;;;;;;10.27;100.00;98505.53;4994290;28;20072;-93
2022/10/24 06:52:58;;;;;;;11.43;1.95;;;;;;;10.26;100.00;98517.91;4990080;28;20033;-94
2022/10/24 06:55:27;;;;;;;8.68;1.50;;;;;;;10.30;100.00;98516.50;5004653;28;20124;-94
2022/10/24 06:57:55;;;;;;;7.50;1.50;;;;;;;10.29;100.00;98511.44;4989485;28;20041;-93
2022/10/24 07:00:24;;;;;;;8.25;1.77;;;;;;;10.32;100.00;98510.25;4993639;28;20026;-93
2022/10/24 07:02:52;;;;;;;7.03;1.48;;;;;;;10.29;100.00;98516.72;5021866;28;20057;-94
2022/10/24 07:05:20;;;;;;;8.73;1.38;;;;;;;10.34;100.00;98516.97;5025965;28;20478;-92
2022/10/24 07:07:48;;;;;;;7.35;1.50;;;;;;;10.30;100.00;98518.34;4981340;28;20030;-93
2022/10/24 07:10:18;;;;;;;8.43;1.75;;;;;;;10.30;100.00;98519.16;4979347;28;20034;-93
2022/10/24 07:12:45;;;;;;;6.28;1.60;;;;;;;10.27;100.00;98514.25;4987180;28;20096;-93
2022/10/24 07:15:14;;;;;;;8.45;1.70;;;;;;;10.36;100.00;98522.03;4994781;28;20062;-93
2022/10/24 07:17:43;;;;;;;5.97;1.35;;;;;;;10.39;100.00;98527.78;4995882;28;20045;-92
2022/10/24 07:20:14;;;;;;;10.93;1.63;;;;;;;10.42;100.00;98531.84;4990573;28;20035;-93
2022/10/24 07:22:44;;;;;;;6.97;1.55;;;;;;;10.45;100.00;98538.59;5010891;28;20503;-93
2022/10/24 07:25:14;;;;;;;5.05;1.23;;;;;;;10.40;100.00;98529.41;5024655;28;20382;-93
2022/10/24 07:27:43;;;;;;;9.85;1.73;;;;;;;10.48;100.00;98544.31;5006771;28;20075;-92
2022/10/24 07:30:17;;;;;;;13.75;1.85;;;;;;;10.47;100.00;98541.88;4992921;28;20058;-92
2022/10/24 07:32:47;;;;;;;3.20;1.13;;;;;;;10.48;100.00;98549.59;4989452;28;20041;-92
2022/10/24 07:35:16;;;;;;;11.05;1.13;;;;;;;10.46;100.00;98549.00;4990016;28;20046;-92
2022/10/24 07:37:44;;;;;;;7.72;1.80;;;;;;;10.51;100.00;98551.88;4970013;28;20487;-92
2022/10/24 07:40:13;;;;;;;5.07;1.02;;;;;;;10.54;100.00;98555.97;4964942;28;20364;-92
2022/10/24 07:42:40;;;;;;;8.30;1.02;;;;;;;10.51;100.00;98554.50;4972517;28;20043;-93
2022/10/24 07:45:10;;;;;;;8.57;1.10;;;;;;;10.56;100.00;98566.34;4994257;28;20050;-93
2022/10/24 07:47:38;;;;;;;4.65;0.80;;;;;;;10.53;100.00;98556.94;4959451;28;20035;-92
2022/10/24 07:50:07;;;;;;;4.63;0.98;;;;;;;10.60;100.00;98572.88;4983309;28;20395;-93
2022/10/24 07:52:35;;;;;;;3.08;0.73;;;;;;;10.61;100.00;98575.31;4988194;28;20042;-93
2022/10/24 07:55:04;;;;;;;8.73;1.17;;;;;;;10.63;100.00;98585.69;4975708;28;20066;-93
2022/10/24 07:57:31;;;;;;;4.45;1.10;;;;;;;10.60;100.00;98584.25;4992227;28;20045;-93
2022/10/24 08:00:00;;;;;;;6.25;0.93;;;;;;;10.63;100.00;98589.16;4983832;28;20044;-93
2022/10/24 08:02:39;;;;;;;3.63;0.80;;;;;;;10.62;100.00;98584.88;5001535;28;20041;-94
2022/10/24 08:05:13;;;;;;;6.70;1.20;;;;;;;10.67;100.00;98593.03;4968321;28;20042;-92
2022/10/24 08:07:41;;;;;;;6.72;1.38;;;;;;;10.73;100.00;98596.78;4972664;28;20035;-92
2022/10/24 08:10:13;;;;;;;3.33;1.08;;;;;;;10.75;100.00;98596.56;5004846;28;20042;-92
2022/10/24 08:12:43;;;;;;;6.18;1.00;;;;;;;10.83;100.00;98604.34;4956485;28;20042;-92
2022/10/24 08:15:12;;;;;;;4.57;0.77;;;;;;;10.86;100.00;98605.81;4977248;28;20031;-92
2022/10/24 08:17:40;;;;;;;4.18;0.60;;;;;;;10.88;100.00;98609.88;4974905;28;20097;-93
2022/10/24 08:20:08;;;;;;;3.15;0.98;;;;;;;10.91;100.00;98614.78;4974038;28;20121;-92
2022/10/24 08:22:36;;;;;;;4.25;0.50;;;;;;;10.89;100.00;98597.50;4983760;28;20046;-92
2022/10/24 08:25:08;;;;;;;7.70;0.60;;;;;;;10.98;100.00;98612.19;4985467;28;20079;-93
2022/10/24 08:27:38;;;;;;;4.05;0.60;;;;;;;11.03;100.00;98612.44;4954508;28;20143;-91
2022/10/24 08:30:08;;;;;;;3.55;0.50;;;;;;;11.05;100.00;98614.88;4951513;28;20057;-91
2022/10/24 08:32:37;;;;;;;1.23;0.68;;;;;;;11.05;100.00;98620.19;4958031;28;20042;-93
2022/10/24 08:35:06;;;;;;;3.50;0.80;;;;;;;11.08;100.00;98613.69;4994146;28;20080;-93
2022/10/24 08:37:37;;;;;;;1.70;0.80;;;;;;;11.12;100.00;98625.50;4994486;28;20097;-93
2022/10/24 08:40:08;;;;;;;3.10;0.60;;;;;;;11.12;100.00;98623.66;5010044;28;20430;-93
2022/10/24 08:42:36;;;;;;;2.53;0.68;;;;;;;11.19;100.00;98628.19;4990267;28;20803;-93
2022/10/24 08:45:11;;;;;;;3.55;0.82;;;;;;;11.24;100.00;98631.06;5000277;28;20097;-93
2022/10/24 08:47:58;;;;;;;3.38;0.88;;;;;;;11.31;100.00;98637.22;5012257;28;20077;-93
2022/10/24 08:50:32;;;;;;;3.17;0.90;;;;;;;11.36;100.00;98637.47;4966650;28;20038;-91
2022/10/24 08:53:13;;;;;;;4.22;0.90;;;;;;;11.45;100.00;98638.09;4997251;28;20089;-93
2022/10/24 08:55:52;;;;;;;1.10;1.00;;;;;;;11.51;100.00;98639.16;4993873;28;20049;-93
2022/10/24 08:58:23;;;;;;;10.88;1.10;;;;;;;11.57;100.00;98640.22;4998962;28;20132;-94
2022/10/24 09:00:54;;;;;;;2.13;0.85;;;;;;;11.60;100.00;98639.81;4998150;28;20450;-93
2022/10/24 09:03:40;;;;;;;1.45;1.02;;;;;;;11.66;100.00;98639.03;4986213;28;20030;-93
2022/10/24 09:06:20;;;;;;;2.55;1.10;;;;;;;11.68;100.00;98639.66;4986988;28;20509;-93
2022/10/24 09:08:59;;;;;;;3.97;0.80;;;;;;;11.73;100.00;98631.94;4981098;28;20033;-93
2022/10/24 09:12:02;;;;;;;2.53;0.73;;;;;;;11.79;100.00;98646.22;4997079;28;20038;-93
2022/10/24 09:14:38;;;;;;;3.10;1.08;;;;;;;11.83;100.00;98652.78;4990602;28;20072;-92
2022/10/24 09:17:24;;;;;;;3.08;0.80;;;;;;;11.84;100.00;98653.56;4990695;28;20803;-93
2022/10/24 09:20:15;;;;;;;3.10;0.73;;;;;;;11.88;100.00;98665.41;4994585;28;20033;-92
2022/10/24 09:22:43;;;;;;;1.48;0.47;;;;;;;11.88;100.00;98665.41;5010800;28;20569;-92
2022/10/24 09:25:20;;;;;;;3.60;0.80;;;;;;;11.89;100.00;98664.38;4980155;28;20033;-92
2022/10/24 09:27:51;;;;;;;3.50;0.60;;;;;;;11.96;100.00;98659.94;5012713;28;20128;-93
2022/10/24 09:30:25;;;;;;;1.45;0.40;;;;;;;12.04;100.00;98665.06;5000168;28;20057;-93
2022/10/24 09:32:58;;;;;;;2.28;0.60;;;;;;;12.13;100.00;98665.75;4992988;28;20045;-93
2022/10/24 09:35:34;;;;;;;3.90;0.60;;;;;;;12.18;100.00;98667.78;4988550;28;20052;-91
2022/10/24 09:38:30;;;;;;;2.83;0.50;;;;;;;12.24;100.00;98676.78;5024948;28;20030;-93
2022/10/24 09:41:03;;;;;;;;;;;;;;;12.20;100.00;98672.91;4993404;28;20096;-92
2022/10/24 09:43:52;;;;;;;3.47;0.60;;;;;;;12.35;100.00;98675.38;4977833;28;19921;-92
2022/10/24 09:46:28;;;;;;;1.90;0.60;;;;;;;12.38;100.00;98664.38;5006157;28;20043;-92
2022/10/24 09:49:04;;;;;;;3.45;0.50;;;;;;;12.48;100.00;98675.41;4990726;28;20085;-93
2022/10/24 09:51:46;;;;;;;2.90;0.40;;;;;;;12.51;100.00;98679.47;4988890;28;20039;-92
2022/10/24 09:54:36;;;;;;;1.25;0.28;;;;;;;12.51;100.00;98677.66;5006494;28;20052;-92
2022/10/24 09:57:18;;;;;;;3.15;0.35;;;;;;;12.44;100.00;98686.63;4989181;28;20042;-92
2022/10/24 09:59:57;;;;;;;5.00;0.40;;;;;;;12.44;100.00;98682.13;4991486;28;20038;-92
2022/10/24 10:02:36;;;;;;;3.22;0.40;;;;;;;12.40;100.00;98687.03;4976692;28;20039;-90
2022/10/24 10:05:19;;;;;;;1.00;0.20;;;;;;;12.44;100.00;98689.25;4997450;28;20030;-91
2022/10/24 10:07:50;;;;;;;3.90;0.30;;;;;;;12.41;100.00;98685.16;4973870;28;20042;-92
2022/10/24 10:10:30;;;;;;;2.33;0.35;;;;;;;12.45;100.00;98688.25;5009359;28;20430;-92
2022/10/24 10:13:21;;;;;;;2.22;0.32;;;;;;;12.44;100.00;98690.06;4973744;28;20031;-92
2022/10/24 10:15:52;;;;;;;1.50;0.30;;;;;;;12.45;100.00;98693.53;5001906;28;20026;-91
2022/10/24 10:18:48;;;;;;;4.18;0.50;;;;;;;12.52;100.00;98689.88;5007474;28;20264;-91
2022/10/24 10:21:26;;;;;;;1.77;0.30;;;;;;;12.49;100.00;98686.81;4957627;28;20070;-91
2022/10/24 10:23:56;;;;;;;2.05;0.40;;;;;;;12.59;100.00;98699.69;4981318;28;20038;-91
2022/10/24 10:26:29;;;;;;;2.05;0.40;;;;;;;12.67;100.00;98703.97;4989442;28;20039;-91
2022/10/24 10:29:18;;;;;;;2.25;0.40;;;;;;;12.70;100.00;98690.31;4986757;28;20030;-90
2022/10/24 10:31:58;;;;;;;6.93;0.80;;;;;;;12.75;100.00;98696.66;4985541;28;20038;-89
2022/10/24 10:34:40;;;;;;;3.47;0.40;;;;;;;12.75;100.00;98703.78;4958195;28;20202;-91
2022/10/24 10:37:32;;;;;;;1.60;0.40;;;;;;;12.75;100.00;98701.13;5008264;28;20072;-90
2022/10/24 10:40:22;;;;;;;2.25;0.45;;;;;;;12.82;100.00;98707.25;4948294;28;20089;-90
2022/10/24 10:43:13;;;;;;;1.98;0.43;;;;;;;12.81;100.00;98707.47;4971276;28;20406;-89
2022/10/24 10:46:20;;;;;;;1.35;0.40;;;;;;;12.77;100.00;98707.88;5011079;28;20034;-91
2022/10/24 10:49:10;;;;;;;5.53;0.63;;;;;;;12.81;100.00;98704.81;4973066;28;20081;-91
2022/10/24 10:52:18;;;;;;;0.82;0.22;;;;;;;12.80;100.00;98713.78;4976372;28;20066;-90
2022/10/24 10:55:07;;;;;;;2.72;0.50;;;;;;;12.78;100.00;98722.78;5003250;28;20192;-91
2022/10/24 10:57:35;;;;;;;2.58;0.43;;;;;;;12.77;100.00;98715.81;4995830;28;20082;-89
2022/10/24 11:00:27;;;;;;;2.95;0.40;;;;;;;12.76;100.00;98722.16;4996799;28;20069;-89
2022/10/24 11:03:21;;;;;;;1.80;0.40;;;;;;;12.70;100.00;98714.16;4957945;28;20038;-90
2022/10/24 11:06:20;;;;;;;6.10;0.85;;;;;;;12.68;100.00;98716.22;4990287;28;20101;-89
2022/10/24 11:09:14;;;;;;;;;;;;;;;12.60;100.00;98717.22;4989367;28;20044;-88
2022/10/24 11:11:52;;;;;;;2.95;0.20;;;;;;;12.69;100.00;98721.34;4975759;28;20415;-90
2022/10/24 11:14:39;;;;;;;3.70;0.77;;;;;;;12.70;100.00;98722.94;5003977;28;20034;-91
2022/10/24 11:17:24;;;;;;;3.38;0.28;;;;;;;12.71;100.00;98713.97;4985531;28;20030;-90
2022/10/24 11:20:10;;;;;;;2.80;0.40;;;;;;;12.74;100.00;98710.91;5005532;28;20039;-91
2022/10/24 11:22:56;;;;;;;2.42;0.32;;;;;;;12.73;100.00;98711.94;4985039;28;20042;-90
2022/10/24 11:25:44;;;;;;;3.35;0.30;;;;;;;12.77;100.00;98721.13;4992280;28;20038;-89
2022/10/24 11:28:24;;;;;;;3.70;0.30;;;;;;;12.80;100.00;98721.75;4944089;28;20493;-91
2022/10/24 11:31:04;;;;;;;0.75;0.20;;;;;;;12.82;100.00;98723.16;4972842;28;20053;-93
2022/10/24 11:33:44;;;;;;;2.10;0.20;;;;;;;12.80;100.00;98721.75;4970102;28;20050;-91
2022/10/24 11:36:33;;;;;;;0.57;0.20;;;;;;;12.72;100.00;98718.28;5026909;28;20040;-92
2022/10/24 11:39:08;;;;;;;3.30;0.40;;;;;;;12.66;100.00;98713.78;5014674;28;20432;-93
2022/10/24 11:41:56;;;;;;;1.38;0.30;;;;;;;12.68;100.00;98732.94;5004783;28;20044;-91
2022/10/24 11:44:34;;;;;;;4.65;0.40;;;;;;;12.64;100.00;98740.50;5011669;28;20069;-91
2022/10/24 11:47:23;;;;;;;4.80;0.50;;;;;;;12.61;100.00;98738.22;5010960;28;20069;-91
2022/10/24 11:50:17;;;;;;;1.08;0.20;;;;;;;12.62;100.00;98739.88;5010016;28;20474;-91
2022/10/24 11:53:12;;;;;;;2.25;0.40;;;;;;;12.70;100.00;98736.22;5011446;28;20029;-91
2022/10/24 11:55:49;;;;;;;1.88;0.22;;;;;;;12.77;100.00;98741.53;5021784;28;20031;-91
2022/10/24 11:58:23;;;;;;;2.97;0.28;;;;;;;12.84;100.00;98742.34;5011838;28;20033;-90